Chatteris, United Kingdom
Current Conditions -  °F | °C
As of 1:20 PM on Wednesday 22 Oct 2014 (Local Time) from EGSC Reporting Station
Few Clouds Few Clouds  
Wind Chill: 55°   Ceiling: Unl
Heat Index: 55°   Visibility: 6mi
Dew Point: 43°   Wind: 15mph
Humidity: 63%   Direction: 270°W
Pressure: 30.24"   Gusts: NA
Location:  52.45°N, 0.05°E
Report Text: EGSC 221220Z 27013KT 9999 FEW028 13/06 Q1024
Loading
Personal Weather Stations






























Interactive Weather Map
Tropical Storm Tracking
New forecast layout! Learn more

10-Day Weather Forecast

Advertisements
Track Severe Weather on mobile